Time;durP1;ratioP1;P1;durP2;ratioP2;P2;SDS_P1;SDS_P2;PMS_P1;PMS_P2;Temp;Humidity;BMP_temperature;BMP_pressure;BME280_temperature;BME280_humidity;BME280_pressure;Samples;Min_cycle;Max_cycle;Signal;HPM_P1;HPM_P2
2021/10/06 00:00:17;;;;;;;7.80;1.25;;;;;;;11.16;80.63;100483.78;5045370;28;20464;-43
2021/10/06 00:02:43;;;;;;;7.40;1.30;;;;;;;11.09;81.22;100494.53;5033203;28;20021;-45
2021/10/06 00:05:08;;;;;;;16.63;1.60;;;;;;;11.09;80.74;100502.59;5032389;28;20040;-45
2021/10/06 00:07:34;;;;;;;4.00;1.05;;;;;;;10.99;82.56;100496.72;5033249;28;20040;-44
2021/10/06 00:09:59;;;;;;;13.13;2.25;;;;;;;10.83;83.89;100508.56;5032917;28;20033;-46
2021/10/06 00:12:24;;;;;;;10.45;1.42;;;;;;;10.76;84.49;100502.28;5032821;28;20128;-49
2021/10/06 00:14:50;;;;;;;9.82;1.40;;;;;;;10.69;85.58;100501.38;5032881;28;20108;-47
2021/10/06 00:17:15;;;;;;;8.30;1.40;;;;;;;10.67;85.92;100501.56;5032784;28;20117;-43
2021/10/06 00:19:40;;;;;;;6.80;1.40;;;;;;;10.71;84.47;100502.00;5032683;28;20445;-45
2021/10/06 00:22:06;;;;;;;10.10;1.63;;;;;;;10.74;84.54;100496.25;5032510;28;20025;-44
2021/10/06 00:24:31;;;;;;;13.73;1.80;;;;;;;10.76;84.46;100511.19;5032735;28;20025;-44
2021/10/06 00:26:56;;;;;;;9.57;1.95;;;;;;;10.84;83.32;100496.75;5032560;28;20032;-46
2021/10/06 00:29:22;;;;;;;8.73;1.73;;;;;;;10.92;80.66;100515.47;5032845;28;20059;-44
2021/10/06 00:31:47;;;;;;;5.53;0.95;;;;;;;10.92;81.05;100507.41;5032488;28;20057;-44
2021/10/06 00:34:13;;;;;;;8.50;1.13;;;;;;;10.93;80.85;100511.78;5032650;28;20112;-45
2021/10/06 00:36:38;;;;;;;8.25;1.50;;;;;;;10.95;83.02;100520.50;5032525;28;20022;-43
2021/10/06 00:39:04;;;;;;;10.27;1.33;;;;;;;10.89;83.35;100525.81;5032037;28;20037;-48
2021/10/06 00:41:29;;;;;;;15.95;1.50;;;;;;;10.79;83.04;100530.66;5032347;28;20032;-45
2021/10/06 00:43:54;;;;;;;6.32;0.93;;;;;;;10.76;82.31;100530.03;5032139;28;20033;-46
2021/10/06 00:46:20;;;;;;;7.30;1.20;;;;;;;10.74;82.42;100540.16;5032658;28;20080;-44
2021/10/06 00:48:45;;;;;;;8.02;1.05;;;;;;;10.69;83.01;100526.44;5032483;28;20029;-45
2021/10/06 00:51:13;;;;;;;14.30;1.25;;;;;;;10.59;83.61;100541.22;5032119;28;20079;-44
2021/10/06 00:53:39;;;;;;;6.72;1.67;;;;;;;10.58;84.32;100548.44;5032420;28;20091;-44
2021/10/06 00:56:05;;;;;;;12.80;1.30;;;;;;;10.56;84.10;100537.06;5032370;28;20029;-44
2021/10/06 00:58:30;;;;;;;7.72;1.08;;;;;;;10.55;84.05;100535.38;5032165;28;20108;-44
2021/10/06 01:00:55;;;;;;;11.95;1.20;;;;;;;10.58;84.17;100540.38;5030838;28;20037;-42
2021/10/06 01:03:21;;;;;;;10.40;1.40;;;;;;;10.62;83.21;100551.63;5032148;28;20025;-44
2021/10/06 01:05:50;;;;;;;7.70;1.00;;;;;;;10.61;81.45;100550.78;5030982;28;20028;-44
2021/10/06 01:08:15;;;;;;;8.15;1.02;;;;;;;10.65;81.68;100549.38;5031394;28;20079;-44
2021/10/06 01:10:41;;;;;;;7.57;1.05;;;;;;;10.69;81.85;100552.50;5032195;28;20420;-43
2021/10/06 01:13:07;;;;;;;10.07;1.25;;;;;;;10.49;86.66;100581.88;5030607;28;20056;-43
2021/10/06 01:15:32;;;;;;;7.35;0.82;;;;;;;10.22;86.66;100572.59;5032177;28;20028;-43
2021/10/06 01:17:58;;;;;;;8.40;1.20;;;;;;;10.12;88.22;100559.44;5032256;28;20388;-45
2021/10/06 01:20:23;;;;;;;7.80;1.02;;;;;;;10.02;88.52;100548.13;5032172;28;20025;-45
2021/10/06 01:22:49;;;;;;;19.33;1.40;;;;;;;9.96;88.76;100546.19;5032483;28;20030;-46
2021/10/06 01:25:15;;;;;;;8.77;1.05;;;;;;;9.96;88.73;100541.63;5032095;28;20037;-47
2021/10/06 01:27:41;;;;;;;12.73;1.40;;;;;;;9.99;88.68;100545.81;5032256;28;20430;-45
2021/10/06 01:30:08;;;;;;;9.20;1.30;;;;;;;10.03;88.88;100544.41;5031875;28;20108;-45
2021/10/06 01:32:36;;;;;;;25.17;1.85;;;;;;;10.06;89.09;100550.25;5031156;28;20026;-45
2021/10/06 01:35:03;;;;;;;11.15;1.60;;;;;;;10.09;89.76;100541.00;5041508;28;20026;-47
2021/10/06 01:37:30;;;;;;;13.65;2.28;;;;;;;10.14;89.46;100549.34;5031673;28;20040;-45
2021/10/06 01:39:55;;;;;;;8.85;1.52;;;;;;;10.15;88.93;100544.78;5031857;28;20052;-44
2021/10/06 01:42:20;;;;;;;11.82;1.42;;;;;;;10.16;89.08;100551.81;5032088;28;20033;-44
2021/10/06 01:44:46;;;;;;;15.00;1.60;;;;;;;10.19;87.64;100554.13;5032139;28;20029;-44
2021/10/06 01:47:23;;;;;;;9.50;1.13;;;;;;;10.19;87.76;100546.91;5032085;28;20034;-46
2021/10/06 01:49:48;;;;;;;12.50;1.63;;;;;;;10.17;87.70;100554.34;5035022;28;20036;-48
2021/10/06 01:52:22;;;;;;;13.95;1.33;;;;;;;10.18;87.26;100566.75;5035507;28;20029;-45
2021/10/06 01:54:47;;;;;;;5.90;0.90;;;;;;;10.12;87.31;100562.13;5035400;28;20030;-45
2021/10/06 01:57:13;;;;;;;6.30;0.93;;;;;;;10.04;87.64;100559.53;5035467;28;20030;-45
2021/10/06 01:59:40;;;;;;;10.02;1.10;;;;;;;9.97;87.80;100559.41;5035247;28;20111;-45
2021/10/06 02:02:06;;;;;;;14.00;1.40;;;;;;;9.95;89.34;100560.63;5035453;28;20032;-45
2021/10/06 02:04:31;;;;;;;13.90;1.10;;;;;;;9.93;89.40;100557.31;5035080;28;20461;-45
2021/10/06 02:06:56;;;;;;;13.55;0.90;;;;;;;9.90;88.19;100550.44;5035298;28;20034;-44
2021/10/06 02:09:22;;;;;;;10.93;1.40;;;;;;;9.88;88.39;100556.00;5035209;28;20362;-46
2021/10/06 02:11:47;;;;;;;10.40;1.20;;;;;;;9.87;88.58;100551.66;5035012;28;20033;-46
2021/10/06 02:14:14;;;;;;;13.90;1.40;;;;;;;9.85;88.69;100559.06;5035105;28;20018;-46
2021/10/06 02:16:39;;;;;;;7.65;1.10;;;;;;;9.91;87.81;100545.91;5035132;28;20032;-46
2021/10/06 02:19:04;;;;;;;9.13;1.45;;;;;;;9.94;87.68;100553.59;5035031;28;20053;-45
2021/10/06 02:21:30;;;;;;;7.88;1.02;;;;;;;9.96;88.31;100546.19;5034893;28;20028;-46
2021/10/06 02:23:55;;;;;;;8.63;0.93;;;;;;;9.96;88.76;100554.25;5035080;28;20037;-46
2021/10/06 02:26:20;;;;;;;10.60;1.88;;;;;;;9.92;89.32;100566.38;5034965;28;20423;-46
2021/10/06 02:28:46;;;;;;;15.35;1.50;;;;;;;9.93;89.61;100562.69;5034502;28;20041;-44
2021/10/06 02:31:11;;;;;;;16.08;1.73;;;;;;;9.92;90.36;100558.31;5034694;28;20032;-47
2021/10/06 02:33:36;;;;;;;8.93;1.40;;;;;;;9.86;90.47;100554.50;5034139;28;20499;-48
2021/10/06 02:36:02;;;;;;;14.63;1.52;;;;;;;9.83;90.37;100558.41;5034615;28;20017;-47
2021/10/06 02:38:27;;;;;;;15.27;1.23;;;;;;;9.84;88.83;100548.47;5033229;28;20080;-44
2021/10/06 02:40:52;;;;;;;25.80;1.63;;;;;;;9.83;89.43;100558.41;5034613;28;20031;-46
2021/10/06 02:43:18;;;;;;;9.63;1.42;;;;;;;9.79;89.79;100557.09;5034536;28;20108;-48
2021/10/06 02:45:43;;;;;;;11.60;1.30;;;;;;;9.73;90.59;100568.59;5034255;28;20108;-44
2021/10/06 02:48:08;;;;;;;16.02;1.30;;;;;;;9.72;90.19;100556.16;5034583;28;20029;-45
2021/10/06 02:50:34;;;;;;;11.60;1.42;;;;;;;9.73;90.74;100557.00;5034376;28;20029;-44
2021/10/06 02:52:59;;;;;;;26.02;3.30;;;;;;;9.68;91.09;100549.47;5033112;28;20030;-45
2021/10/06 02:55:25;;;;;;;16.58;1.35;;;;;;;9.70;91.41;100550.13;5034421;28;20362;-45
2021/10/06 02:57:50;;;;;;;12.52;1.27;;;;;;;9.68;91.53;100565.59;5034427;28;20419;-43
2021/10/06 03:00:16;;;;;;;8.75;1.10;;;;;;;9.69;91.22;100556.53;5042845;28;20036;-46
2021/10/06 03:02:41;;;;;;;11.73;1.50;;;;;;;9.67;91.38;100547.81;5037164;28;20028;-44
2021/10/06 03:05:11;;;;;;;18.45;2.35;;;;;;;9.66;91.24;100547.00;5034171;28;20033;-44
2021/10/06 03:07:37;;;;;;;21.27;1.77;;;;;;;9.65;90.47;100539.09;5034243;28;20036;-45
2021/10/06 03:10:04;;;;;;;15.93;1.42;;;;;;;9.62;89.88;100539.47;5034131;28;20393;-44
2021/10/06 03:12:29;;;;;;;7.40;1.30;;;;;;;9.60;90.36;100546.88;5033738;28;20068;-45
2021/10/06 03:14:54;;;;;;;13.27;0.95;;;;;;;9.58;90.37;100543.53;5033973;28;20481;-46
2021/10/06 03:17:20;;;;;;;16.52;1.67;;;;;;;9.54;90.07;100543.06;5033603;28;20437;-47
2021/10/06 03:19:45;;;;;;;11.52;1.80;;;;;;;9.54;89.63;100539.56;5033687;28;20049;-47
2021/10/06 03:22:10;;;;;;;21.20;1.52;;;;;;;9.53;89.92;100541.41;5033474;28;20068;-47
2021/10/06 03:24:36;;;;;;;15.68;2.25;;;;;;;9.56;89.86;100542.91;5033782;28;20025;-47
2021/10/06 03:27:01;;;;;;;13.57;2.00;;;;;;;9.56;90.18;100518.72;5033464;28;20021;-47
2021/10/06 03:29:28;;;;;;;9.70;1.25;;;;;;;9.57;90.09;100526.59;5033432;28;20080;-46
2021/10/06 03:31:53;;;;;;;11.00;1.27;;;;;;;9.59;89.95;100512.97;5033397;28;20028;-46
2021/10/06 03:34:19;;;;;;;15.55;1.55;;;;;;;9.61;90.83;100529.72;5033682;28;20037;-47
2021/10/06 03:36:44;;;;;;;19.00;1.70;;;;;;;9.62;91.36;100534.09;5033600;28;20028;-44
2021/10/06 03:39:09;;;;;;;17.45;2.00;;;;;;;9.66;91.71;100519.25;5033671;28;20021;-46
2021/10/06 03:41:35;;;;;;;14.15;1.70;;;;;;;9.68;91.97;100509.19;5033634;28;20049;-44
2021/10/06 03:44:00;;;;;;;10.40;1.80;;;;;;;9.72;92.46;100507.81;5032134;28;20025;-44
2021/10/06 03:46:25;;;;;;;21.92;2.63;;;;;;;9.77;92.81;100543.03;5033186;28;20032;-44
2021/10/06 03:48:51;;;;;;;17.27;2.88;;;;;;;9.82;92.88;100529.00;5033533;28;20381;-46
2021/10/06 03:51:17;;;;;;;17.63;2.33;;;;;;;9.92;92.34;100529.56;5032975;28;20442;-46
2021/10/06 03:53:42;;;;;;;17.10;2.00;;;;;;;9.97;92.33;100529.03;5033313;28;20431;-47
2021/10/06 03:56:08;;;;;;;20.50;2.30;;;;;;;10.01;92.80;100519.56;5033222;28;20392;-50
2021/10/06 03:58:34;;;;;;;22.33;2.92;;;;;;;10.07;92.75;100527.72;5032988;28;20117;-47
2021/10/06 04:01:00;;;;;;;16.40;2.35;;;;;;;10.15;92.79;100513.34;5033255;28;20036;-48
2021/10/06 04:03:25;;;;;;;21.02;2.50;;;;;;;10.18;92.75;100507.59;5032938;28;20444;-47
2021/10/06 04:05:50;;;;;;;20.42;2.30;;;;;;;10.24;92.76;100511.38;5032957;28;20037;-47
2021/10/06 04:08:17;;;;;;;21.45;2.67;;;;;;;10.29;92.37;100515.22;5032901;28;20024;-46
2021/10/06 04:10:43;;;;;;;28.88;2.60;;;;;;;10.33;92.30;100521.88;5032523;28;20034;-49
2021/10/06 04:13:08;;;;;;;20.30;2.30;;;;;;;10.38;92.35;100517.81;5031556;28;20360;-45
2021/10/06 04:15:34;;;;;;;20.98;2.30;;;;;;;10.40;92.49;100504.97;5032870;28;20037;-47
2021/10/06 04:18:00;;;;;;;30.90;3.90;;;;;;;10.41;92.88;100520.94;5032354;28;20029;-44
2021/10/06 04:20:26;;;;;;;24.02;2.20;;;;;;;10.42;93.04;100502.94;5030925;28;20141;-45
2021/10/06 04:22:51;;;;;;;26.80;3.00;;;;;;;10.42;92.95;100505.63;5032685;28;20149;-44
2021/10/06 04:25:17;;;;;;;33.53;2.75;;;;;;;10.44;93.07;100511.66;5032692;28;20392;-47
2021/10/06 04:27:42;;;;;;;22.88;2.30;;;;;;;10.44;92.98;100511.66;5032705;28;20029;-46
2021/10/06 04:30:08;;;;;;;20.08;2.25;;;;;;;10.48;92.39;100515.66;5032048;28;20065;-46
2021/10/06 04:32:35;;;;;;;12.05;1.80;;;;;;;10.47;91.90;100505.91;5030477;28;20141;-45
2021/10/06 04:35:00;;;;;;;16.20;2.05;;;;;;;10.51;91.69;100517.97;5040639;28;20048;-45
2021/10/06 04:37:26;;;;;;;13.63;1.80;;;;;;;10.53;91.66;100515.88;5050961;28;20029;-46
2021/10/06 04:39:51;;;;;;;16.10;2.08;;;;;;;10.57;91.33;100506.44;5032293;28;20057;-45
2021/10/06 04:42:17;;;;;;;12.57;1.90;;;;;;;10.60;91.45;100522.19;5032411;28;20476;-45
2021/10/06 04:44:42;;;;;;;18.48;1.85;;;;;;;10.63;91.63;100520.97;5032255;28;20072;-44
2021/10/06 04:47:08;;;;;;;21.20;2.38;;;;;;;10.66;91.81;100513.34;5032565;28;20029;-46
2021/10/06 04:49:33;;;;;;;16.38;2.05;;;;;;;10.72;91.42;100531.44;5032326;28;20499;-45
2021/10/06 04:51:58;;;;;;;22.63;2.72;;;;;;;10.75;91.33;100543.69;5031866;28;20373;-46
2021/10/06 04:54:24;;;;;;;22.17;2.60;;;;;;;10.77;91.08;100545.16;5031864;28;20373;-45
2021/10/06 04:56:50;;;;;;;24.80;2.92;;;;;;;10.81;91.06;100552.84;5030738;28;20044;-45
2021/10/06 04:59:15;;;;;;;21.35;2.20;;;;;;;10.83;90.77;100548.94;5032111;28;20482;-45
2021/10/06 05:01:40;;;;;;;17.10;2.47;;;;;;;10.86;90.36;100558.50;5032287;28;20041;-45
2021/10/06 05:04:06;;;;;;;18.48;2.17;;;;;;;10.91;89.78;100556.06;5031900;28;20400;-45
2021/10/06 05:06:32;;;;;;;24.00;3.53;;;;;;;10.92;89.45;100558.56;5032076;28;20029;-45
2021/10/06 05:08:57;;;;;;;19.38;2.30;;;;;;;10.95;89.15;100558.19;5032280;28;20075;-44
2021/10/06 05:11:23;;;;;;;17.40;2.60;;;;;;;10.96;89.44;100575.19;5031838;28;20036;-44
2021/10/06 05:13:49;;;;;;;18.90;2.97;;;;;;;10.98;89.12;100567.75;5032405;28;20033;-46
2021/10/06 05:16:15;;;;;;;15.23;2.25;;;;;;;11.02;88.21;100574.41;5032466;28;20046;-46
2021/10/06 05:18:40;;;;;;;16.70;2.70;;;;;;;11.03;89.13;100570.69;5031802;28;20037;-48
2021/10/06 05:21:06;;;;;;;16.75;2.53;;;;;;;11.11;87.49;100584.06;5029768;28;20492;-47
2021/10/06 05:23:31;;;;;;;14.13;2.58;;;;;;;11.09;87.85;100591.47;5032520;28;20388;-47
2021/10/06 05:25:56;;;;;;;19.27;2.75;;;;;;;11.02;88.30;100590.56;5035715;28;20025;-50
2021/10/06 05:28:22;;;;;;;18.92;2.38;;;;;;;11.04;87.63;100588.53;5032478;28;20491;-47
2021/10/06 05:30:47;;;;;;;21.65;3.17;;;;;;;11.03;88.24;100592.22;5023645;28;20396;-46
2021/10/06 05:33:12;;;;;;;14.52;2.05;;;;;;;11.07;87.95;100598.91;5037193;28;20017;-45
2021/10/06 05:35:38;;;;;;;15.88;2.35;;;;;;;11.07;88.08;100606.16;5034151;28;20159;-46
2021/10/06 05:38:03;;;;;;;13.18;1.98;;;;;;;11.10;87.82;100617.38;5035148;28;20017;-46
2021/10/06 05:40:28;;;;;;;13.50;2.75;;;;;;;11.11;88.08;100610.97;5035036;28;20464;-47
2021/10/06 05:42:54;;;;;;;15.02;2.65;;;;;;;11.07;88.75;100601.59;5017627;28;20040;-47
2021/10/06 05:45:19;;;;;;;18.67;2.72;;;;;;;11.07;88.32;100598.91;5034967;28;20025;-46
2021/10/06 05:47:44;;;;;;;16.55;2.30;;;;;;;11.08;88.54;100615.91;5038407;28;20034;-46
2021/10/06 05:50:11;;;;;;;16.17;2.80;;;;;;;11.09;88.54;100613.03;5035059;28;20028;-48
2021/10/06 05:52:37;;;;;;;8.43;1.90;;;;;;;11.08;88.73;100615.91;5035741;28;20037;-46
2021/10/06 05:55:03;;;;;;;9.57;2.25;;;;;;;11.06;88.83;100608.03;5051386;28;20083;-45
2021/10/06 05:57:28;;;;;;;16.63;2.55;;;;;;;11.09;87.68;100631.06;5054787;28;20518;-47
2021/10/06 05:59:54;;;;;;;15.20;1.90;;;;;;;11.11;88.02;100640.59;5052937;28;20029;-47
2021/10/06 06:02:20;;;;;;;10.25;1.85;;;;;;;11.11;88.46;100642.44;5045961;28;20091;-48
2021/10/06 06:04:45;;;;;;;14.50;2.42;;;;;;;11.10;88.08;100641.63;5034691;28;20028;-46
2021/10/06 06:07:11;;;;;;;13.35;2.38;;;;;;;11.15;87.14;100649.97;5034615;28;20097;-48
2021/10/06 06:09:36;;;;;;;25.02;2.03;;;;;;;11.16;88.04;100648.94;5034394;28;20103;-47
2021/10/06 06:12:02;;;;;;;19.55;2.85;;;;;;;11.13;88.54;100656.56;5033584;28;20443;-46
2021/10/06 06:14:28;;;;;;;13.32;2.05;;;;;;;11.05;89.04;100656.69;5032959;28;20085;-45
2021/10/06 06:16:54;;;;;;;14.20;2.13;;;;;;;10.99;89.58;100669.03;5034720;28;20030;-47
2021/10/06 06:19:19;;;;;;;12.30;2.15;;;;;;;10.95;90.08;100665.03;5034549;28;20052;-44
2021/10/06 06:21:44;;;;;;;23.10;2.22;;;;;;;10.91;91.02;100667.28;5034242;28;20044;-46
2021/10/06 06:24:10;;;;;;;24.45;2.90;;;;;;;10.91;91.14;100674.53;5034668;28;20079;-47
2021/10/06 06:26:35;;;;;;;11.15;1.80;;;;;;;10.96;90.87;100666.72;5039643;28;20306;-49
2021/10/06 06:29:00;;;;;;;15.85;2.13;;;;;;;10.99;90.41;100656.41;5051189;28;20080;-47
2021/10/06 06:31:26;;;;;;;17.60;2.70;;;;;;;11.05;90.36;100665.59;5034247;28;20394;-45
2021/10/06 06:33:51;;;;;;;11.88;1.95;;;;;;;11.03;90.70;100674.88;5050122;28;20548;-46
2021/10/06 06:36:16;;;;;;;13.40;2.22;;;;;;;11.03;90.64;100673.00;5047004;28;20033;-47
2021/10/06 06:38:42;;;;;;;15.00;2.08;;;;;;;11.08;90.26;100675.97;5018562;28;20024;-48
2021/10/06 06:41:07;;;;;;;20.38;2.30;;;;;;;11.12;90.63;100682.66;5032701;28;20103;-48
2021/10/06 06:43:32;;;;;;;24.73;3.08;;;;;;;11.22;90.98;100706.63;5033196;28;20160;-47
2021/10/06 06:45:58;;;;;;;24.40;2.80;;;;;;;11.25;91.15;100690.06;5032534;28;20369;-48
2021/10/06 06:48:23;;;;;;;12.43;2.00;;;;;;;11.24;91.18;100695.63;5033867;28;20029;-49
2021/10/06 06:50:53;;;;;;;18.77;2.40;;;;;;;11.23;90.99;100712.84;5033662;28;20030;-47
2021/10/06 06:53:21;;;;;;;15.63;3.03;;;;;;;11.25;90.84;100708.94;5033837;28;20141;-44
2021/10/06 06:55:47;;;;;;;24.05;2.90;;;;;;;11.27;91.01;100706.03;5031766;28;20025;-44
2021/10/06 06:58:13;;;;;;;16.67;3.13;;;;;;;11.29;91.45;100714.75;5033380;28;20040;-43
2021/10/06 07:00:39;;;;;;;31.85;3.50;;;;;;;11.25;91.75;100718.88;5033625;28;20033;-44
2021/10/06 07:03:04;;;;;;;21.38;3.30;;;;;;;11.15;92.01;100703.84;5033976;28;20021;-47
2021/10/06 07:05:30;;;;;;;24.58;2.42;;;;;;;11.07;92.05;100706.63;5034943;28;20032;-46
2021/10/06 07:07:56;;;;;;;24.83;3.00;;;;;;;11.07;92.49;100714.72;5032786;28;20427;-46
2021/10/06 07:10:21;;;;;;;22.27;2.88;;;;;;;11.08;92.55;100724.47;5031963;28;20026;-47
2021/10/06 07:12:46;;;;;;;23.08;2.47;;;;;;;11.13;92.14;100737.38;5035679;28;20055;-47
2021/10/06 07:15:12;;;;;;;28.20;3.35;;;;;;;11.16;92.02;100739.69;5032201;28;20113;-46
2021/10/06 07:17:37;;;;;;;24.50;3.95;;;;;;;11.15;92.09;100738.84;5033103;28;20029;-46
2021/10/06 07:20:03;;;;;;;22.98;2.90;;;;;;;11.20;91.68;100749.06;5033398;28;20025;-48
2021/10/06 07:22:28;;;;;;;21.20;2.67;;;;;;;11.20;91.29;100743.69;5023751;28;20440;-45
2021/10/06 07:24:55;;;;;;;16.70;2.13;;;;;;;11.23;90.89;100759.47;5032977;28;20117;-44
2021/10/06 07:27:20;;;;;;;14.13;2.35;;;;;;;11.24;91.37;100752.22;5033299;28;20427;-44
2021/10/06 07:29:45;;;;;;;22.73;3.38;;;;;;;11.20;91.58;100755.28;5033139;28;20053;-46
2021/10/06 07:32:11;;;;;;;27.95;3.63;;;;;;;11.14;92.14;100758.75;5039109;28;20479;-47
2021/10/06 07:34:36;;;;;;;17.25;2.28;;;;;;;11.14;92.33;100766.81;5038787;28;20029;-44
2021/10/06 07:37:02;;;;;;;26.00;3.50;;;;;;;11.16;92.60;100772.00;5032552;28;20037;-45
2021/10/06 07:39:27;;;;;;;23.10;2.97;;;;;;;11.20;92.81;100768.75;5032091;28;20403;-44
2021/10/06 07:41:52;;;;;;;23.80;3.45;;;;;;;11.21;91.37;100770.41;5032155;28;20034;-43
2021/10/06 07:44:18;;;;;;;22.67;2.95;;;;;;;11.24;91.83;100774.59;5032927;28;20035;-47
2021/10/06 07:46:44;;;;;;;25.30;4.18;;;;;;;11.25;91.42;100768.19;5031149;28;20037;-47
2021/10/06 07:49:10;;;;;;;28.08;3.67;;;;;;;11.25;91.79;100783.53;5032170;28;20029;-45
2021/10/06 07:51:36;;;;;;;25.17;2.90;;;;;;;11.28;91.35;100766.97;5030968;28;20057;-46
2021/10/06 07:54:02;;;;;;;14.88;2.20;;;;;;;11.27;91.61;100786.84;5032825;28;20103;-44
2021/10/06 07:56:27;;;;;;;24.33;3.35;;;;;;;11.26;92.24;100777.09;5033115;28;20072;-46
2021/10/06 07:58:52;;;;;;;20.08;2.65;;;;;;;11.28;92.31;100783.16;5033148;28;20033;-47
2021/10/06 08:01:18;;;;;;;22.42;3.42;;;;;;;11.27;92.52;100770.69;5032188;28;20035;-46
2021/10/06 08:03:43;;;;;;;37.60;3.25;;;;;;;11.24;92.75;100771.06;5033263;28;20112;-46
2021/10/06 08:06:09;;;;;;;23.27;3.10;;;;;;;11.16;93.07;100763.91;5040631;28;20032;-48
2021/10/06 08:08:34;;;;;;;26.60;3.42;;;;;;;11.13;93.38;100781.28;5037149;28;20468;-47
2021/10/06 08:11:00;;;;;;;26.25;3.50;;;;;;;11.15;93.65;100787.34;5032913;28;20088;-47
2021/10/06 08:13:26;;;;;;;37.97;3.83;;;;;;;11.17;93.57;100798.75;5031673;28;20114;-49
2021/10/06 08:15:52;;;;;;;28.58;3.90;;;;;;;11.27;93.46;100792.25;5032470;28;20025;-50
2021/10/06 08:18:19;;;;;;;31.85;4.82;;;;;;;11.33;92.94;100802.28;5031989;28;20025;-50
2021/10/06 08:20:49;;;;;;;35.77;4.60;;;;;;;11.43;93.02;100819.00;5032772;28;20124;-48
2021/10/06 08:23:18;;;;;;;27.52;3.83;;;;;;;11.48;92.86;100821.09;5039833;28;20111;-50
2021/10/06 08:25:45;;;;;;;32.83;4.28;;;;;;;11.52;92.82;100825.09;5051171;28;20083;-50
2021/10/06 08:28:11;;;;;;;32.83;3.67;;;;;;;11.55;92.88;100830.13;5033765;28;20560;-47
2021/10/06 08:30:37;;;;;;;35.53;5.05;;;;;;;11.57;92.65;100837.00;5032537;28;20041;-47
2021/10/06 08:33:03;;;;;;;26.08;4.07;;;;;;;11.62;92.16;100841.81;5032257;28;20423;-47
2021/10/06 08:35:28;;;;;;;30.10;3.78;;;;;;;11.69;91.72;100844.59;5032354;28;20103;-47
2021/10/06 08:37:54;;;;;;;28.23;4.18;;;;;;;11.75;91.54;100862.72;5032014;28;20021;-46
2021/10/06 08:40:19;;;;;;;32.75;4.22;;;;;;;11.80;91.47;100863.81;5029950;28;20083;-46
2021/10/06 08:42:45;;;;;;;38.45;4.15;;;;;;;11.83;91.93;100870.69;5031938;28;20435;-45
2021/10/06 08:45:10;;;;;;;30.33;3.75;;;;;;;11.92;91.65;100877.66;5032077;28;20033;-47
2021/10/06 08:47:40;;;;;;;29.17;5.03;;;;;;;12.13;91.11;100867.94;5032168;28;20048;-48
2021/10/06 08:50:08;;;;;;;32.65;5.43;;;;;;;12.35;91.40;100891.22;5032143;28;20033;-48
2021/10/06 08:52:34;;;;;;;32.70;4.93;;;;;;;12.75;90.64;100891.59;5032227;28;20111;-47
2021/10/06 08:55:05;;;;;;;23.95;3.55;;;;;;;12.79;88.61;100906.34;5044445;28;20475;-46
2021/10/06 08:57:30;;;;;;;21.67;3.03;;;;;;;12.71;88.52;100909.19;5038472;28;20473;-47
2021/10/06 08:59:56;;;;;;;14.25;2.05;;;;;;;12.56;85.90;100908.41;5056000;28;20060;-47
2021/10/06 09:02:22;;;;;;;13.38;2.15;;;;;;;12.47;85.98;100919.34;5055988;28;20384;-46
2021/10/06 09:04:48;;;;;;;16.23;2.22;;;;;;;12.70;87.46;100924.56;5047020;28;20108;-46
2021/10/06 09:07:13;;;;;;;11.18;1.90;;;;;;;12.94;84.38;100928.72;5034669;28;20026;-46
2021/10/06 09:09:39;;;;;;;14.68;2.25;;;;;;;13.22;85.70;100943.25;5036005;28;20045;-48
2021/10/06 09:12:16;;;;;;;14.00;1.95;;;;;;;13.44;83.27;100953.03;5034193;28;20029;-46
2021/10/06 09:14:44;;;;;;;11.65;2.35;;;;;;;13.68;80.90;100965.22;5035776;28;20473;-46
2021/10/06 09:17:12;;;;;;;11.32;2.13;;;;;;;13.91;82.42;100958.69;5039506;28;20340;-47
2021/10/06 09:19:46;;;;;;;12.13;1.45;;;;;;;14.03;80.07;100955.22;5054240;28;20029;-44
2021/10/06 09:22:15;;;;;;;8.35;1.67;;;;;;;14.11;80.20;100970.41;5051043;28;20049;-45
2021/10/06 09:24:55;;;;;;;8.98;1.63;;;;;;;14.11;78.71;100975.00;5035211;28;20061;-42
2021/10/06 09:27:27;;;;;;;8.23;1.60;;;;;;;14.11;80.45;100983.94;5035688;28;20026;-47
2021/10/06 09:29:55;;;;;;;18.92;2.28;;;;;;;14.19;79.64;100993.78;5035310;28;20343;-44
2021/10/06 09:32:29;;;;;;;21.15;2.10;;;;;;;14.20;81.22;100990.88;5035235;28;20152;-46
2021/10/06 09:34:59;;;;;;;21.70;2.33;;;;;;;14.42;82.73;100998.84;5035377;28;20086;-46
2021/10/06 09:37:25;;;;;;;15.23;2.28;;;;;;;14.65;80.51;101004.78;5035386;28;20042;-46
2021/10/06 09:39:52;;;;;;;9.18;1.98;;;;;;;14.78;78.79;100995.03;5034901;28;20480;-48
2021/10/06 09:42:17;;;;;;;22.42;1.92;;;;;;;14.75;80.20;101003.56;5033332;28;20082;-48
2021/10/06 09:44:55;;;;;;;11.15;2.20;;;;;;;14.71;80.99;101005.84;5035349;28;20021;-47
2021/10/06 09:47:21;;;;;;;16.90;2.28;;;;;;;14.83;80.66;101023.19;5035504;28;20064;-46
2021/10/06 09:49:53;;;;;;;22.77;3.00;;;;;;;14.84;79.75;101019.41;5035541;28;20111;-45
2021/10/06 09:52:30;;;;;;;21.83;2.33;;;;;;;15.01;79.31;101025.28;5035070;28;20184;-47
2021/10/06 09:55:06;;;;;;;13.52;3.25;;;;;;;15.06;76.07;101020.09;5035022;28;20033;-43
2021/10/06 09:57:36;;;;;;;16.73;1.90;;;;;;;14.94;78.42;101040.69;5035040;28;20030;-44
2021/10/06 10:00:08;;;;;;;19.63;2.75;;;;;;;14.74;79.31;101043.34;5033373;28;20041;-44
2021/10/06 10:02:35;;;;;;;20.95;3.03;;;;;;;14.38;81.58;101043.66;5035647;28;20037;-45
2021/10/06 10:05:01;;;;;;;14.95;2.20;;;;;;;14.17;81.93;101048.13;5031131;28;20392;-46
2021/10/06 10:07:26;;;;;;;14.52;2.88;;;;;;;14.23;80.98;101055.44;5033505;28;20082;-44
2021/10/06 10:09:52;;;;;;;19.90;2.30;;;;;;;14.41;79.88;101056.78;5033305;28;20036;-45
2021/10/06 10:12:19;;;;;;;14.07;2.13;;;;;;;14.65;81.92;101064.38;5034167;28;20522;-46
2021/10/06 10:14:45;;;;;;;14.63;2.58;;;;;;;14.81;79.98;101075.91;5034642;28;20025;-47
2021/10/06 10:17:11;;;;;;;11.10;2.13;;;;;;;14.78;79.77;101092.56;5034750;28;20025;-44
2021/10/06 10:19:36;;;;;;;17.35;2.53;;;;;;;14.65;81.28;101082.53;5034196;28;20032;-47
2021/10/06 10:22:03;;;;;;;13.00;2.42;;;;;;;14.49;80.77;101083.69;5034886;28;20033;-45
2021/10/06 10:24:29;;;;;;;13.05;2.20;;;;;;;14.13;81.34;101086.63;5034521;28;20057;-47
2021/10/06 10:27:06;;;;;;;15.82;2.60;;;;;;;13.84;82.21;101089.34;5033340;28;20030;-48
2021/10/06 10:29:33;;;;;;;19.02;2.63;;;;;;;13.78;83.20;101103.66;5034413;28;20053;-47
2021/10/06 10:32:11;;;;;;;17.00;2.83;;;;;;;13.82;83.40;101102.25;5034471;28;20021;-46
2021/10/06 10:34:59;;;;;;;13.60;2.20;;;;;;;13.92;81.94;101107.28;5034401;28;20416;-46
2021/10/06 10:37:59;;;;;;;16.70;2.58;;;;;;;14.17;82.16;101114.97;5033797;28;20064;-45
2021/10/06 10:40:30;;;;;;;16.05;2.22;;;;;;;14.42;81.15;101120.72;5030111;28;20050;-46
2021/10/06 10:43:00;;;;;;;12.05;2.05;;;;;;;14.57;79.68;101121.44;5031987;28;20079;-45
2021/10/06 10:45:38;;;;;;;16.75;2.42;;;;;;;14.59;78.57;101129.38;5034338;28;20057;-48
2021/10/06 10:48:04;;;;;;;11.45;1.77;;;;;;;14.62;78.11;101129.81;5034157;28;20052;-45
2021/10/06 10:50:37;;;;;;;11.38;2.15;;;;;;;14.68;77.56;101128.16;5034136;28;20021;-45
2021/10/06 10:53:02;;;;;;;8.65;1.63;;;;;;;14.67;77.77;101143.59;5033926;28;20469;-45
2021/10/06 10:55:46;;;;;;;14.88;2.10;;;;;;;14.94;78.18;101154.53;5044432;28;20069;-45
2021/10/06 10:58:30;;;;;;;12.73;1.98;;;;;;;15.16;77.76;101147.06;5054186;28;20021;-48
2021/10/06 11:00:56;;;;;;;18.08;2.92;;;;;;;15.25;77.38;101166.72;5037112;28;20025;-45
2021/10/06 11:03:22;;;;;;;13.45;2.13;;;;;;;15.15;78.42;101158.97;5029796;28;20029;-48
2021/10/06 11:05:48;;;;;;;14.95;2.60;;;;;;;14.91;79.61;101168.50;5034406;28;20025;-48
2021/10/06 11:08:24;;;;;;;23.85;3.38;;;;;;;14.68;81.22;101156.09;5034408;28;20035;-46
2021/10/06 11:11:12;;;;;;;22.05;3.63;;;;;;;14.40;83.15;101163.41;5034109;28;20040;-47
2021/10/06 11:13:46;;;;;;;20.45;2.95;;;;;;;14.13;83.93;101178.63;5054033;28;20028;-47
2021/10/06 11:16:12;;;;;;;25.13;3.33;;;;;;;14.06;84.11;101178.59;5051532;28;20112;-48